createdAt,value
2019-03-22T00:00:05.975Z,99.99
2019-03-22T00:01:05.962Z,99.99
2019-03-22T00:02:05.808Z,99.99
2019-03-22T00:03:05.723Z,99.99
2019-03-22T00:04:05.651Z,99.99
2019-03-22T00:05:05.574Z,99.99
2019-03-22T00:06:05.476Z,99.99
2019-03-22T00:07:05.382Z,99.99
2019-03-22T00:08:05.394Z,99.99
2019-03-22T00:09:05.230Z,99.99
2019-03-22T00:10:05.129Z,99.99
2019-03-22T00:11:05.208Z,99.99
2019-03-22T00:12:04.957Z,99.99
2019-03-22T00:13:04.874Z,99.99
2019-03-22T00:14:04.844Z,99.99
2019-03-22T00:15:04.702Z,99.99
2019-03-22T00:16:04.619Z,99.99
2019-03-22T00:17:04.629Z,99.99
2019-03-22T00:18:04.449Z,99.99
2019-03-22T00:19:04.382Z,99.99
2019-03-22T00:20:04.447Z,99.99
2019-03-22T00:21:04.200Z,99.99
2019-03-22T00:22:04.108Z,99.99
2019-03-22T00:23:04.054Z,99.99
2019-03-22T00:24:03.960Z,99.99
2019-03-22T00:25:03.857Z,99.99
2019-03-22T00:26:03.875Z,99.99
2019-03-22T00:27:03.686Z,99.99
2019-03-22T00:28:03.678Z,99.99
2019-03-22T00:29:03.518Z,99.99
2019-03-22T00:30:03.518Z,99.99
2019-03-22T00:31:03.343Z,99.99
2019-03-22T00:32:03.296Z,99.99
2019-03-22T00:33:03.173Z,99.99
2019-03-22T00:34:03.105Z,99.99
2019-03-22T00:35:03.033Z,99.99
2019-03-22T00:36:02.919Z,99.99
2019-03-22T00:37:02.925Z,99.99
2019-03-22T00:38:02.754Z,99.99
2019-03-22T00:39:02.671Z,99.99
2019-03-22T00:40:02.761Z,99.99
2019-03-22T00:41:02.497Z,99.99
2019-03-22T00:42:02.408Z,99.99
2019-03-22T00:43:02.549Z,99.99
2019-03-22T00:44:02.247Z,99.99
2019-03-22T00:45:02.575Z,99.99
2019-03-22T00:46:02.078Z,99.99
2019-03-22T00:47:01.984Z,99.99
2019-03-22T00:48:01.911Z,99.99
2019-03-22T00:49:01.976Z,99.99
2019-03-22T00:50:01.739Z,99.99
2019-03-22T00:51:01.648Z,99.99
2019-03-22T00:52:01.587Z,99.99
2019-03-22T00:53:01.482Z,99.99
2019-03-22T00:54:01.392Z,99.99
2019-03-22T00:55:01.427Z,99.99
2019-03-22T00:56:01.218Z,99.99
2019-03-22T00:57:01.134Z,99.99
2019-03-22T00:58:01.222Z,99.99
2019-03-22T00:59:00.963Z,99.99
2019-03-22T01:00:00.897Z,99.99
2019-03-22T01:01:00.827Z,99.99
2019-03-22T01:02:00.709Z,99.99
2019-03-22T01:03:00.840Z,99.99
2019-03-22T01:04:00.536Z,99.99
2019-03-22T01:05:00.468Z,99.99
2019-03-22T01:06:00.512Z,99.99
2019-03-22T01:07:00.290Z,99.99
2019-03-22T01:08:00.203Z,99.99
2019-03-22T01:09:00.261Z,99.99
2019-03-22T01:10:00.049Z,99.99
2019-03-22T01:10:59.945Z,99.99
2019-03-22T01:11:59.877Z,99.99
2019-03-22T01:12:59.777Z,99.99
2019-03-22T01:13:59.686Z,99.99
2019-03-22T01:14:59.720Z,99.99
2019-03-22T01:15:59.518Z,99.99
2019-03-22T01:16:59.438Z,99.99
2019-03-22T01:17:59.510Z,99.99
2019-03-22T01:18:59.261Z,99.99
2019-03-22T01:19:59.197Z,99.99
2019-03-22T01:20:59.114Z,99.99
2019-03-22T01:21:59.004Z,99.99
2019-03-22T01:22:59.132Z,99.99
2019-03-22T01:23:59.990Z,99.99
2019-03-22T01:24:58.769Z,99.99
2019-03-22T01:25:58.738Z,99.99
2019-03-22T01:26:58.592Z,99.99
2019-03-22T01:27:58.494Z,99.99
2019-03-22T01:28:58.558Z,99.99
2019-03-22T01:29:58.339Z,99.99
2019-03-22T01:30:58.237Z,99.99
2019-03-22T01:31:58.153Z,99.99
2019-03-22T01:32:58.169Z,99.99
2019-03-22T01:33:57.987Z,99.99
2019-03-22T01:34:57.921Z,99.99
2019-03-22T01:35:57.812Z,99.99
2019-03-22T01:36:57.792Z,99.99
2019-03-22T01:37:57.639Z,99.99
2019-03-22T01:38:57.553Z,99.99
2019-03-22T01:39:57.650Z,99.99
2019-03-22T01:40:57.395Z,99.99
2019-03-22T01:41:57.432Z,99.99
2019-03-22T01:42:57.217Z,99.99
2019-03-22T01:43:57.225Z,99.99
2019-03-22T01:44:57.045Z,99.99
2019-03-22T01:45:57.063Z,99.99
2019-03-22T01:46:56.875Z,99.99
2019-03-22T01:47:56.835Z,99.99
2019-03-22T01:48:56.709Z,99.99
2019-03-22T01:49:56.646Z,99.99
2019-03-22T01:50:56.546Z,99.99
2019-03-22T01:51:56.447Z,99.99
2019-03-22T01:52:56.462Z,99.99
2019-03-22T01:53:56.282Z,99.99
2019-03-22T01:54:56.200Z,99.99
2019-03-22T01:55:56.316Z,99.99
2019-03-22T01:56:56.033Z,99.99
2019-03-22T01:57:56.082Z,99.99
2019-03-22T01:58:55.847Z,99.99
2019-03-22T01:59:55.893Z,99.99
2019-03-22T02:00:55.695Z,99.99
2019-03-22T02:01:55.700Z,99.99
2019-03-22T02:02:55.506Z,99.99
2019-03-22T02:03:55.508Z,99.99
2019-03-22T02:04:55.339Z,99.99
2019-03-22T02:05:55.346Z,99.99
2019-03-22T02:06:55.165Z,99.99
2019-03-22T02:07:55.126Z,99.99
2019-03-22T02:08:54.998Z,99.99
2019-03-22T02:09:54.932Z,99.99
2019-03-22T02:10:54.843Z,99.99
2019-03-22T02:11:54.947Z,99.99
2019-03-22T02:12:54.658Z,99.99
2019-03-22T02:13:54.757Z,99.99
2019-03-22T02:14:54.485Z,99.99
2019-03-22T02:15:54.594Z,99.99
2019-03-22T02:16:54.310Z,99.99
2019-03-22T02:17:54.370Z,99.99
2019-03-22T02:18:54.139Z,99.99
2019-03-22T02:19:54.179Z,99.99
2019-03-22T02:20:53.985Z,99.99
2019-03-22T02:21:53.884Z,99.99
2019-03-22T02:22:53.814Z,99.99
2019-03-22T02:23:53.718Z,99.99
2019-03-22T02:24:53.631Z,99.99
2019-03-22T02:25:53.638Z,99.99
2019-03-22T02:26:53.461Z,99.99
2019-03-22T02:28:03.717Z,99.99
2019-03-22T02:28:53.425Z,99.99
2019-03-22T02:29:53.210Z,99.99
2019-03-22T02:30:53.129Z,99.99
2019-03-22T02:31:53.236Z,99.99
2019-03-22T02:32:52.944Z,99.99
2019-03-22T02:33:52.855Z,99.99
2019-03-22T02:34:52.845Z,99.99
2019-03-22T02:35:52.698Z,99.99
2019-03-22T02:36:52.607Z,99.99
2019-03-22T02:37:52.665Z,99.99
2019-03-22T02:38:52.432Z,99.99
2019-03-22T02:39:52.348Z,99.99
2019-03-22T02:40:52.304Z,99.99
2019-03-22T02:41:52.173Z,99.99
2019-03-22T02:42:52.091Z,99.99
2019-03-22T02:43:54.554Z,99.99
2019-03-22T02:44:51.931Z,99.99
2019-03-22T02:45:51.852Z,99.99
2019-03-22T02:46:51.902Z,99.99
2019-03-22T02:47:51.659Z,99.99
2019-03-22T02:48:51.573Z,99.99
2019-03-22T02:49:51.511Z,99.99
2019-03-22T02:50:51.429Z,99.99
2019-03-22T02:51:51.320Z,99.99
2019-03-22T02:52:51.325Z,99.99
2019-03-22T02:53:51.151Z,99.99
2019-03-22T02:54:51.136Z,99.99
2019-03-22T02:55:51.046Z,99.99
2019-03-22T02:56:50.946Z,99.99
2019-03-22T02:57:50.812Z,99.99
2019-03-22T02:58:50.754Z,99.99
2019-03-22T02:59:50.658Z,99.99
2019-03-22T03:00:50.593Z,99.99
2019-03-22T03:01:50.462Z,99.99
2019-03-22T03:02:50.576Z,99.99
2019-03-22T03:03:50.294Z,99.99
2019-03-22T03:04:50.388Z,99.99
2019-03-22T03:05:50.158Z,99.99
2019-03-22T03:06:50.211Z,99.99
2019-03-22T03:07:49.959Z,99.99
2019-03-22T03:08:49.876Z,99.99
2019-03-22T03:09:49.784Z,99.99
2019-03-22T03:10:49.708Z,99.99
2019-03-22T03:11:49.825Z,99.99
2019-03-22T03:12:49.527Z,99.99
2019-03-22T03:13:49.437Z,99.99
2019-03-22T03:14:49.427Z,99.99
2019-03-22T03:15:49.293Z,99.99
2019-03-22T03:16:49.178Z,99.99
2019-03-22T03:17:49.241Z,99.99
2019-03-22T03:18:49.014Z,99.99
2019-03-22T03:19:48.941Z,99.99
2019-03-22T03:20:48.846Z,99.99
2019-03-22T03:21:48.770Z,99.99
2019-03-22T03:22:48.898Z,99.99
2019-03-22T03:23:48.581Z,99.99
2019-03-22T03:24:48.500Z,99.99
2019-03-22T03:25:48.473Z,99.99
2019-03-22T03:26:48.337Z,99.99
2019-03-22T03:27:48.304Z,99.99
2019-03-22T03:28:48.160Z,99.99
2019-03-22T03:29:48.090Z,99.99
2019-03-22T03:30:47.982Z,99.99
2019-03-22T03:31:47.918Z,99.99
2019-03-22T03:32:47.928Z,99.99
2019-03-22T03:33:47.760Z,99.99
2019-03-22T03:34:47.644Z,99.99
2019-03-22T03:35:47.719Z,99.99
2019-03-22T03:36:47.481Z,99.99
2019-03-22T03:37:47.389Z,99.99
2019-03-22T03:38:47.334Z,99.99
2019-03-22T03:39:47.211Z,99.99
2019-03-22T03:40:47.344Z,99.99
2019-03-22T03:41:47.056Z,99.99
2019-03-22T03:42:46.953Z,99.99
2019-03-22T03:43:46.953Z,99.99
2019-03-22T03:44:46.784Z,99.99
2019-03-22T03:45:46.697Z,99.99
2019-03-22T03:46:46.803Z,99.99
2019-03-22T03:47:46.530Z,99.99
2019-03-22T03:48:46.450Z,99.99
2019-03-22T03:49:46.391Z,99.99
2019-03-22T03:50:46.273Z,99.99
2019-03-22T03:51:46.203Z,99.99
2019-03-22T03:52:46.195Z,99.99
2019-03-22T03:53:46.018Z,99.99
2019-03-22T03:54:45.928Z,99.99
2019-03-22T03:55:46.011Z,99.99
2019-03-22T03:56:45.776Z,99.99
2019-03-22T03:57:45.676Z,99.99
2019-03-22T03:58:52.377Z,99.99
2019-03-22T03:59:45.507Z,99.99
2019-03-22T04:00:45.434Z,99.99
2019-03-22T04:01:45.480Z,99.99
2019-03-22T04:02:45.246Z,99.99
2019-03-22T04:03:45.158Z,99.99
2019-03-22T04:04:45.259Z,99.99
2019-03-22T04:05:44.988Z,99.99
2019-03-22T04:06:44.918Z,99.99
2019-03-22T04:07:44.861Z,99.99
2019-03-22T04:08:44.737Z,99.99
2019-03-22T04:09:44.659Z,99.99
2019-03-22T04:10:44.675Z,99.99
2019-03-22T04:11:44.483Z,99.99
2019-03-22T04:12:44.397Z,99.99
2019-03-22T04:13:44.487Z,99.99
2019-03-22T04:14:44.214Z,99.99
2019-03-22T04:15:44.298Z,99.99
2019-03-22T04:16:44.058Z,99.99
2019-03-22T04:17:44.106Z,99.99
2019-03-22T04:18:43.876Z,99.99
2019-03-22T04:19:43.915Z,99.99
2019-03-22T04:20:43.699Z,99.99
2019-03-22T04:21:43.767Z,99.99
2019-03-22T04:22:43.534Z,99.99
2019-03-22T04:23:43.446Z,99.99
2019-03-22T04:24:43.538Z,99.99
2019-03-22T04:25:43.274Z,99.99
2019-03-22T04:26:43.202Z,99.99
2019-03-22T04:27:43.104Z,99.99
2019-03-22T04:28:43.157Z,99.99
2019-03-22T04:29:42.936Z,99.99
2019-03-22T04:30:42.966Z,99.99
2019-03-22T04:31:42.776Z,99.99
2019-03-22T04:32:42.670Z,99.99
2019-03-22T04:33:42.783Z,99.99
2019-03-22T04:34:42.502Z,99.99
2019-03-22T04:35:42.415Z,99.99
2019-03-22T04:36:42.420Z,99.99
2019-03-22T04:37:42.242Z,99.99
2019-03-22T04:38:42.171Z,99.99
2019-03-22T04:39:42.207Z,99.99
2019-03-22T04:40:41.982Z,99.99
2019-03-22T04:41:41.912Z,99.99
2019-03-22T04:42:42.023Z,99.99
2019-03-22T04:43:41.727Z,99.99
2019-03-22T04:44:41.638Z,99.99
2019-03-22T04:45:41.632Z,99.99
2019-03-22T04:46:41.481Z,99.99
2019-03-22T04:47:41.380Z,99.99
2019-03-22T04:48:41.445Z,99.99
2019-03-22T04:49:41.209Z,99.99
2019-03-22T04:50:41.123Z,99.99
2019-03-22T04:51:41.090Z,99.99
2019-03-22T04:52:40.955Z,99.99
2019-03-22T04:53:40.866Z,99.99
2019-03-22T04:54:40.869Z,99.99
2019-03-22T04:55:40.693Z,99.99
2019-03-22T04:56:40.734Z,99.99
2019-03-22T04:57:40.532Z,99.99
2019-03-22T04:58:40.440Z,99.99
2019-03-22T04:59:40.456Z,99.99
2019-03-22T05:00:40.266Z,99.99
2019-03-22T05:01:40.195Z,99.99
2019-03-22T05:02:40.171Z,99.99
2019-03-22T05:03:40.006Z,99.99
2019-03-22T05:04:39.925Z,99.99
2019-03-22T05:05:39.884Z,99.99
2019-03-22T05:06:39.765Z,99.99
2019-03-22T05:07:39.670Z,99.99
2019-03-22T05:08:39.731Z,99.99
2019-03-22T05:09:39.495Z,99.99
2019-03-22T05:10:39.615Z,99.99
2019-03-22T05:11:39.346Z,99.99
2019-03-22T05:12:39.349Z,99.99
2019-03-22T05:13:39.149Z,99.99
2019-03-22T05:14:39.159Z,99.99
2019-03-22T05:15:38.982Z,99.99
2019-03-22T05:16:38.967Z,99.99
2019-03-22T05:17:38.825Z,99.99
2019-03-22T05:18:38.775Z,99.99
2019-03-22T05:19:38.640Z,99.99
2019-03-22T05:20:38.583Z,99.99
2019-03-22T05:21:38.497Z,99.99
2019-03-22T05:22:38.427Z,99.99
2019-03-22T05:23:38.403Z,99.99
2019-03-22T05:24:38.205Z,99.99
2019-03-22T05:25:38.123Z,99.99
2019-03-22T05:26:38.215Z,99.99
2019-03-22T05:27:37.969Z,99.99
2019-03-22T05:28:37.864Z,99.99
2019-03-22T05:29:38.909Z,99.99
2019-03-22T05:30:37.693Z,99.99
2019-03-22T05:31:37.636Z,99.99
2019-03-22T05:32:37.537Z,99.99
2019-03-22T05:33:37.431Z,99.99
2019-03-22T05:34:37.450Z,99.99
2019-03-22T05:35:37.267Z,99.99
2019-03-22T05:36:37.176Z,99.99
2019-03-22T05:37:37.373Z,99.99
2019-03-22T05:38:37.015Z,99.99
2019-03-22T05:39:36.918Z,99.99
2019-03-22T05:40:36.874Z,99.99
2019-03-22T05:41:36.744Z,99.99
2019-03-22T05:42:36.680Z,99.99
2019-03-22T05:43:36.691Z,99.99
2019-03-22T05:44:36.487Z,99.99
2019-03-22T05:45:36.402Z,99.99
2019-03-22T05:46:36.321Z,99.99
2019-03-22T05:47:36.247Z,99.99
2019-03-22T05:48:36.149Z,99.99
2019-03-22T05:49:36.114Z,99.99
2019-03-22T05:50:35.973Z,99.99
2019-03-22T05:51:35.929Z,99.99
2019-03-22T05:52:35.827Z,99.99
2019-03-22T05:53:35.715Z,99.99
2019-03-22T05:54:35.741Z,99.99
2019-03-22T05:55:35.547Z,99.99
2019-03-22T05:56:35.462Z,99.99
2019-03-22T05:57:35.395Z,99.99
2019-03-22T05:58:36.378Z,99.99
2019-03-22T05:59:42.534Z,99.99
2019-03-22T06:00:35.124Z,99.99
2019-03-22T06:01:35.027Z,99.99
2019-03-22T06:02:35.023Z,99.99
2019-03-22T06:03:34.861Z,99.99
2019-03-22T06:04:34.774Z,99.99
2019-03-22T06:05:34.692Z,99.99
2019-03-22T06:06:34.601Z,99.99
2019-03-22T06:07:36.975Z,99.99
2019-03-22T06:08:34.449Z,99.99
2019-03-22T06:09:34.353Z,99.99
2019-03-22T06:10:34.267Z,99.99
2019-03-22T06:11:34.170Z,99.99
2019-03-22T06:12:34.109Z,99.99
2019-03-22T06:13:34.006Z,99.99
2019-03-22T06:14:33.926Z,99.99
2019-03-22T06:15:33.843Z,99.99
2019-03-22T06:16:33.744Z,99.99
2019-03-22T06:17:33.680Z,99.99
2019-03-22T06:18:33.585Z,99.99
2019-03-22T06:19:33.491Z,99.99
2019-03-22T06:20:33.416Z,99.99
2019-03-22T06:21:33.317Z,99.99
2019-03-22T06:22:33.256Z,99.99
2019-03-22T06:23:33.180Z,99.99
2019-03-22T06:24:33.068Z,99.99
2019-03-22T06:25:32.981Z,99.99
2019-03-22T06:26:32.897Z,99.99
2019-03-22T06:27:32.821Z,99.99
2019-03-22T06:28:32.731Z,99.99
2019-03-22T06:29:32.643Z,99.99
2019-03-22T06:30:32.705Z,99.99
2019-03-22T06:31:32.475Z,99.99
2019-03-22T06:32:32.413Z,99.99
2019-03-22T06:33:32.296Z,99.99
2019-03-22T06:34:32.212Z,99.99
2019-03-22T06:35:32.136Z,99.99
2019-03-22T06:36:32.042Z,99.99
2019-03-22T06:37:31.962Z,99.99
2019-03-22T06:38:32.906Z,99.99
2019-03-22T06:39:31.803Z,99.99
2019-03-22T06:40:31.715Z,99.99
2019-03-22T06:41:31.618Z,99.99
2019-03-22T06:42:31.538Z,99.99
2019-03-22T06:43:31.462Z,99.99
2019-03-22T06:44:31.364Z,99.99
2019-03-22T06:45:31.283Z,99.99
2019-03-22T06:46:31.198Z,99.99
2019-03-22T06:47:31.120Z,99.99
2019-03-22T06:48:31.043Z,99.99
2019-03-22T06:49:30.941Z,99.99
2019-03-22T06:50:30.864Z,99.99
2019-03-22T06:51:30.792Z,99.99
2019-03-22T06:52:30.690Z,99.99
2019-03-22T06:53:30.617Z,99.99
2019-03-22T06:54:31.827Z,99.99
2019-03-22T06:55:30.434Z,99.99
2019-03-22T06:56:30.358Z,99.99
2019-03-22T06:57:30.275Z,99.99
2019-03-22T06:58:30.210Z,99.99
2019-03-22T06:59:30.101Z,99.99
2019-03-22T07:00:30.033Z,99.99
2019-03-22T07:01:29.934Z,99.99
2019-03-22T07:02:29.850Z,99.99
2019-03-22T07:03:29.788Z,99.99
2019-03-22T07:04:29.685Z,99.99
2019-03-22T07:05:29.606Z,99.99
2019-03-22T07:06:29.538Z,99.99
2019-03-22T07:07:29.445Z,99.99
2019-03-22T07:08:29.367Z,99.99
2019-03-22T07:09:29.272Z,99.99
2019-03-22T07:10:29.211Z,99.99
2019-03-22T07:11:29.105Z,99.99
2019-03-22T07:12:29.016Z,99.99
2019-03-22T07:13:28.955Z,99.99
2019-03-22T07:14:28.851Z,99.99
2019-03-22T07:15:28.786Z,99.99
2019-03-22T07:16:28.684Z,99.99
2019-03-22T07:17:28.613Z,99.99
2019-03-22T07:18:28.590Z,99.99
2019-03-22T07:19:28.434Z,99.99
2019-03-22T07:20:28.375Z,99.99
2019-03-22T07:21:28.272Z,99.99
2019-03-22T07:22:28.189Z,99.99
2019-03-22T07:23:28.122Z,99.99
2019-03-22T07:24:28.050Z,99.99
2019-03-22T07:25:27.943Z,99.99
2019-03-22T07:26:30.043Z,99.99
2019-03-22T07:27:27.778Z,99.99
2019-03-22T07:28:27.710Z,99.99
2019-03-22T07:29:27.612Z,99.99
2019-03-22T07:30:27.547Z,99.99
2019-03-22T07:31:27.448Z,99.99
2019-03-22T07:32:27.377Z,99.99
2019-03-22T07:33:27.296Z,99.99
2019-03-22T07:34:27.210Z,99.99
2019-03-22T07:35:27.118Z,99.99
2019-03-22T07:36:27.045Z,99.99
2019-03-22T07:37:26.964Z,99.99
2019-03-22T07:38:27.412Z,99.99
2019-03-22T07:39:26.792Z,99.99
2019-03-22T07:40:26.709Z,99.99
2019-03-22T07:41:26.636Z,99.99
2019-03-22T07:42:26.548Z,99.99
2019-03-22T07:43:26.500Z,99.99
2019-03-22T07:44:26.411Z,99.99
2019-03-22T07:45:26.302Z,99.99
2019-03-22T07:46:26.244Z,99.99
2019-03-22T07:47:26.139Z,99.99
2019-03-22T07:48:26.086Z,99.99
2019-03-22T07:49:25.982Z,99.99
2019-03-22T07:50:25.900Z,99.99
2019-03-22T07:51:25.817Z,99.99
2019-03-22T07:52:25.744Z,99.99
2019-03-22T07:53:25.671Z,99.99
2019-03-22T07:54:25.581Z,99.99
2019-03-22T07:55:25.484Z,99.99
2019-03-22T07:56:25.409Z,99.99
2019-03-22T07:57:25.322Z,99.99
2019-03-22T07:58:25.265Z,99.99
2019-03-22T07:59:25.158Z,99.99
2019-03-22T08:00:30.730Z,99.99
2019-03-22T08:01:24.997Z,99.99
2019-03-22T08:02:25.782Z,99.99
2019-03-22T08:03:24.874Z,99.99
2019-03-22T08:04:24.757Z,99.99
2019-03-22T08:05:24.671Z,99.99
2019-03-22T08:06:24.594Z,99.99
2019-03-22T08:07:24.510Z,99.99
2019-03-22T08:08:24.431Z,99.99
2019-03-22T08:09:24.379Z,99.99
2019-03-22T08:10:24.334Z,99.99
2019-03-22T08:11:24.961Z,99.99
2019-03-22T08:12:24.113Z,99.99
2019-03-22T08:13:24.063Z,99.99
2019-03-22T08:14:23.964Z,99.99
2019-03-22T08:15:23.880Z,99.99
2019-03-22T08:16:23.789Z,99.99
2019-03-22T08:17:23.708Z,99.99
2019-03-22T08:18:23.633Z,99.99
2019-03-22T08:19:23.591Z,98.75
2019-03-22T08:20:23.509Z,98.85
2019-03-22T08:21:23.433Z,98.28
2019-03-22T08:22:23.345Z,99.04
2019-03-22T08:23:23.245Z,98.80
2019-03-22T08:24:23.181Z,97.75
2019-03-22T08:25:23.074Z,97.37
2019-03-22T08:26:22.992Z,96.56
2019-03-22T08:27:22.922Z,96.47
2019-03-22T08:28:22.834Z,94.93
2019-03-22T08:29:22.783Z,94.93
2019-03-22T08:30:22.714Z,94.46
2019-03-22T08:31:22.606Z,94.89
2019-03-22T08:32:22.546Z,93.74
2019-03-22T08:33:22.443Z,92.59
2019-03-22T08:34:22.383Z,92.11
2019-03-22T08:35:22.325Z,92.21
2019-03-22T08:36:22.261Z,92.11
2019-03-22T08:37:22.150Z,92.21
2019-03-22T08:38:22.095Z,91.25
2019-03-22T08:39:22.000Z,91.44
2019-03-22T08:40:21.902Z,91.16
2019-03-22T08:41:23.828Z,90.01
2019-03-22T08:42:21.750Z,90.58
2019-03-22T08:43:21.705Z,90.91
2019-03-22T08:44:21.602Z,90.91
2019-03-22T08:45:21.523Z,90.67
2019-03-22T08:46:21.436Z,90.09
2019-03-22T08:47:33.118Z,90.00
2019-03-22T08:48:21.308Z,90.53
2019-03-22T08:49:21.323Z,89.47
2019-03-22T08:50:21.131Z,87.70
2019-03-22T08:51:21.063Z,86.21
2019-03-22T08:52:21.011Z,85.35
2019-03-22T08:53:20.908Z,85.64
2019-03-22T08:54:20.858Z,86.31
2019-03-22T08:55:20.776Z,86.74
2019-03-22T08:56:20.677Z,84.25
2019-03-22T08:57:20.652Z,83.86
2019-03-22T08:58:20.550Z,83.48
2019-03-22T08:59:20.472Z,82.71
2019-03-22T09:00:20.400Z,83.23
2019-03-22T09:01:20.308Z,83.33
2019-03-22T09:02:20.245Z,82.46
2019-03-22T09:03:20.175Z,82.04
2019-03-22T09:04:20.108Z,82.18
2019-03-22T09:05:20.023Z,83.04
2019-03-22T09:06:19.980Z,82.42
2019-03-22T09:07:19.894Z,82.23
2019-03-22T09:08:19.801Z,82.62
2019-03-22T09:09:19.750Z,81.95
2019-03-22T09:10:19.644Z,83.42
2019-03-22T09:11:19.565Z,83.04
2019-03-22T09:12:19.525Z,80.74
2019-03-22T09:13:19.415Z,81.02
2019-03-22T09:14:19.372Z,81.26
2019-03-22T09:15:19.298Z,80.68
2019-03-22T09:16:19.189Z,80.78
2019-03-22T09:17:19.167Z,79.09
2019-03-22T09:18:19.044Z,78.61
2019-03-22T09:19:18.984Z,78.75
2019-03-22T09:20:18.915Z,77.11
2019-03-22T09:21:18.835Z,77.01
2019-03-22T09:22:18.762Z,75.96
2019-03-22T09:23:18.682Z,75.00
2019-03-22T09:24:19.124Z,76.34
2019-03-22T09:25:18.532Z,75.67
2019-03-22T09:26:19.999Z,74.85
2019-03-22T09:27:18.513Z,75.52
2019-03-22T09:28:18.336Z,74.17
2019-03-22T09:29:18.266Z,74.21
2019-03-22T09:30:18.176Z,73.88
2019-03-22T09:31:18.102Z,73.54
2019-03-22T09:32:18.030Z,73.83
2019-03-22T09:33:17.994Z,72.73
2019-03-22T09:34:17.895Z,73.02
2019-03-22T09:35:17.822Z,73.02
2019-03-22T09:36:17.744Z,72.67
2019-03-22T09:37:17.780Z,72.96
2019-03-22T09:38:17.614Z,73.83
2019-03-22T09:39:17.559Z,74.11
2019-03-22T09:40:17.451Z,73.67
2019-03-22T09:41:17.390Z,72.90
2019-03-22T09:42:17.315Z,72.32
2019-03-22T09:43:17.239Z,71.84
2019-03-22T09:44:17.251Z,71.01
2019-03-22T09:45:17.158Z,71.01
2019-03-22T09:46:17.033Z,69.12
2019-03-22T09:47:17.043Z,68.90
2019-03-22T09:48:16.883Z,68.99
2019-03-22T09:49:16.836Z,69.95
2019-03-22T09:50:16.748Z,69.85
2019-03-22T09:51:16.731Z,70.82
2019-03-22T09:52:16.618Z,69.95
2019-03-22T09:53:16.536Z,67.83
2019-03-22T09:54:16.484Z,67.07
2019-03-22T09:55:16.445Z,67.83
2019-03-22T09:56:16.314Z,66.88
2019-03-22T09:57:16.256Z,67.35
2019-03-22T09:58:16.176Z,67.45
2019-03-22T09:59:16.133Z,67.65
2019-03-22T10:00:16.051Z,66.78
2019-03-22T10:01:23.477Z,66.49
2019-03-22T10:02:15.951Z,65.14
2019-03-22T10:03:15.826Z,66.20
2019-03-22T10:04:15.747Z,65.33
2019-03-22T10:05:15.695Z,66.49
2019-03-22T10:06:15.605Z,66.68
2019-03-22T10:07:15.538Z,67.16
2019-03-22T10:08:15.487Z,66.39
2019-03-22T10:09:15.398Z,66.20
2019-03-22T10:10:15.330Z,66.58
2019-03-22T10:11:15.242Z,66.78
2019-03-22T10:12:15.193Z,66.68
2019-03-22T10:13:15.159Z,66.39
2019-03-22T10:14:15.054Z,67.65
2019-03-22T10:15:15.011Z,67.26
2019-03-22T10:16:14.914Z,66.78
2019-03-22T10:17:14.857Z,66.52
2019-03-22T10:18:14.744Z,66.14
2019-03-22T10:19:14.727Z,64.69
2019-03-22T10:20:14.682Z,65.56
2019-03-22T10:21:22.381Z,64.05
2019-03-22T10:22:14.511Z,62.83
2019-03-22T10:23:14.395Z,63.12
2019-03-22T10:24:14.303Z,62.06
2019-03-22T10:25:14.311Z,63.89
2019-03-22T10:26:14.214Z,63.02
2019-03-22T10:27:14.151Z,61.96
2019-03-22T10:28:14.044Z,62.28
2019-03-22T10:29:14.132Z,61.41
2019-03-22T10:30:13.886Z,60.96
2019-03-22T10:31:13.802Z,61.16
2019-03-22T10:32:13.989Z,61.22
2019-03-22T10:33:22.583Z,61.13
2019-03-22T10:34:13.596Z,61.41
2019-03-22T10:35:25.431Z,61.99
2019-03-22T10:36:13.449Z,62.41
2019-03-22T10:37:13.406Z,61.93
2019-03-22T10:38:16.296Z,61.93
2019-03-22T10:39:13.269Z,60.48
2019-03-22T10:40:13.205Z,60.28
2019-03-22T10:41:13.200Z,59.52
2019-03-22T10:42:13.026Z,60.00
2019-03-22T10:43:13.056Z,59.93
2019-03-22T10:44:12.997Z,59.55
2019-03-22T10:45:12.830Z,59.55
2019-03-22T10:46:12.792Z,57.52
2019-03-22T10:47:12.680Z,57.90
2019-03-22T10:48:12.803Z,58.87
2019-03-22T10:49:12.600Z,59.55
2019-03-22T10:50:12.656Z,60.41
2019-03-22T10:51:12.425Z,58.10
2019-03-22T10:52:12.419Z,58.10
2019-03-22T10:53:12.287Z,58.29
2019-03-22T10:54:12.221Z,57.81
2019-03-22T10:55:23.624Z,58.22
2019-03-22T10:56:12.053Z,56.39
2019-03-22T10:57:11.998Z,56.10
2019-03-22T10:58:20.917Z,56.22
2019-03-22T10:59:11.846Z,55.16
2019-03-22T11:00:11.789Z,55.07
2019-03-22T11:01:11.866Z,55.83
2019-03-22T11:02:11.641Z,55.04
2019-03-22T11:03:11.569Z,54.65
2019-03-22T11:04:11.509Z,54.36
2019-03-22T11:05:11.520Z,54.75
2019-03-22T11:06:11.355Z,56.22
2019-03-22T11:07:11.286Z,55.26
2019-03-22T11:08:11.216Z,55.67
2019-03-22T11:09:11.152Z,54.71
2019-03-22T11:10:13.530Z,53.64
2019-03-22T11:11:11.114Z,53.16
2019-03-22T11:12:12.452Z,53.33
2019-03-22T11:13:10.872Z,54.17
2019-03-22T11:14:10.928Z,53.88
2019-03-22T11:15:10.744Z,53.11
2019-03-22T11:16:10.659Z,53.42
2019-03-22T11:17:10.591Z,52.94
2019-03-22T11:18:10.546Z,54.99
2019-03-22T11:19:10.451Z,53.74
2019-03-22T11:20:10.398Z,52.67
2019-03-22T11:21:10.318Z,52.48
2019-03-22T11:22:10.398Z,52.29
2019-03-22T11:23:10.173Z,51.13
2019-03-22T11:24:10.102Z,52.00
2019-03-22T11:25:10.057Z,51.49
2019-03-22T11:26:09.966Z,50.62
2019-03-22T11:27:09.914Z,51.23
2019-03-22T11:28:11.951Z,51.59
2019-03-22T11:29:09.756Z,52.45
2019-03-22T11:30:09.707Z,51.78
2019-03-22T11:31:09.627Z,51.90
2019-03-22T11:32:12.742Z,51.42
2019-03-22T11:33:09.479Z,51.10
2019-03-22T11:34:09.407Z,51.87
2019-03-22T11:35:09.359Z,52.07
2019-03-22T11:36:09.275Z,52.39
2019-03-22T11:37:09.205Z,52.97
2019-03-22T11:38:09.141Z,52.39
2019-03-22T11:39:15.535Z,52.19
2019-03-22T11:40:09.010Z,51.42
2019-03-22T11:41:08.930Z,50.93
2019-03-22T11:42:08.859Z,51.61
2019-03-22T11:43:09.158Z,51.83
2019-03-22T11:44:08.721Z,51.83
2019-03-22T11:45:08.656Z,51.54
2019-03-22T11:46:08.597Z,50.76
2019-03-22T11:47:08.509Z,51.15
2019-03-22T11:48:08.447Z,51.83
2019-03-22T11:49:08.373Z,51.83
2019-03-22T11:50:08.315Z,51.93
2019-03-22T11:51:08.265Z,51.44
2019-03-22T11:52:08.166Z,52.09
2019-03-22T11:53:08.084Z,51.51
2019-03-22T11:54:08.021Z,52.19
2019-03-22T11:55:07.971Z,53.45
2019-03-22T11:56:09.412Z,52.70
2019-03-22T11:57:07.804Z,52.22
2019-03-22T11:58:07.744Z,51.83
2019-03-22T11:59:07.670Z,52.12
2019-03-22T12:00:07.634Z,52.39
2019-03-22T12:01:07.527Z,52.00
2019-03-22T12:02:07.471Z,52.97
2019-03-22T12:03:07.386Z,52.94
2019-03-22T12:04:07.317Z,53.25
2019-03-22T12:05:07.262Z,52.09
2019-03-22T12:06:07.200Z,52.19
2019-03-22T12:07:07.107Z,52.12
2019-03-22T12:08:07.045Z,52.22
2019-03-22T12:09:06.978Z,52.05
2019-03-22T12:10:06.902Z,50.21
2019-03-22T12:11:06.849Z,51.18
2019-03-22T12:12:06.759Z,50.96
2019-03-22T12:13:06.690Z,50.89
2019-03-22T12:14:06.625Z,50.89
2019-03-22T12:15:08.186Z,50.70
2019-03-22T12:16:06.493Z,50.12
2019-03-22T12:17:06.424Z,50.72
2019-03-22T12:18:06.350Z,50.02
2019-03-22T12:19:06.272Z,50.89
2019-03-22T12:20:06.209Z,51.73
2019-03-22T12:21:06.179Z,51.47
2019-03-22T12:22:06.102Z,50.98
2019-03-22T12:23:05.993Z,51.28
2019-03-22T12:24:05.924Z,50.98
2019-03-22T12:25:05.865Z,49.63
2019-03-22T12:26:06.574Z,50.21
2019-03-22T12:27:05.721Z,50.31
2019-03-22T12:28:05.650Z,50.79
2019-03-22T12:29:05.574Z,51.47
2019-03-22T12:30:05.515Z,50.89
2019-03-22T12:31:05.448Z,51.01
2019-03-22T12:32:05.436Z,51.10
2019-03-22T12:33:05.302Z,50.72
2019-03-22T12:34:05.233Z,49.56
2019-03-22T12:35:05.159Z,50.50
2019-03-22T12:36:05.107Z,51.76
2019-03-22T12:37:05.025Z,51.08
2019-03-22T12:38:04.962Z,52.02
2019-03-22T12:39:04.883Z,52.61
2019-03-22T12:40:04.817Z,50.96
2019-03-22T12:41:04.760Z,50.98
2019-03-22T12:42:04.679Z,51.50
2019-03-22T12:43:04.601Z,50.92
2019-03-22T12:44:04.547Z,50.82
2019-03-22T12:45:04.461Z,51.01
2019-03-22T12:46:04.422Z,50.92
2019-03-22T12:47:04.324Z,49.65
2019-03-22T12:48:04.269Z,51.10
2019-03-22T12:49:04.226Z,50.14
2019-03-22T12:50:04.111Z,50.16
2019-03-22T12:51:04.070Z,49.85